Palo Alto, CA (94301)

1:09 PM PDT on August 24, 2016 (GMT -0700)
McPhail Data Systems | | Change Station

Elev 36 ft 37.45 °N, 122.14 °W | Updated 60 seconds ago

Clear
Clear
74.5 °F
Feels Like 77 °F
N
4.7
Wind Variable Wind from NNW

Today
High -- | Low -- °F
--% Chance of Precip.
Yesterday
High -- | Low -- °F
Precip. -- in
Pressure 30.09 in
Visibility 10.0 miles
Clouds Clear
Heat Index 77 °F
Dew Point 59 °F
Humidity 59%
Rainfall 0.00 in
Snow Depth Not available.
6:32 AM 7:48 PM
Waning Gibbous, 54% visible
METAR KNUQ 241956Z 36006KT 10SM CLR 22/14 A3008 RMK AO2 SLP188 T02170139
Pressure 30.09 in
Visibility 10.0 miles
Clouds Clear
Heat Index 77 °F
Dew Point 59 °F
Humidity 59%
Rainfall 0.00 in
Snow Depth Not available.
6:32 AM 7:48 PM
Waning Gibbous, 54% visible
METAR KNUQ 241956Z 36006KT 10SM CLR 22/14 A3008 RMK AO2 SLP188 T02170139

10-Day Weather Forecast

Almanac

Astronomy

Aug. 24, 2016 Rise Set
Actual Time
Civil Twilight
Nautical Twilight
Astronomical Twilight
Moon
Length of Visible Light
Length of Day
Tomorrow will be .
, % of the Moon is Illuminated

Today's Extremes

State Highs State Lows

Community

WunderPhotos

Upload Photos

1,934,696 photos uploaded!

WunderBlog® & News

Nearby

Air Quality

  Air Quality AQ Index Pollutant
Not available.

Snow Depth

Station Depth Elevation

Earthquake Activity

City Distance Mag. Time & Date
Minimum magnitude displayed is 2.5.

Coastal Water Temperatures

Place Temperature

Stations

Nearby Weather Stations

Station Location Temp. Windchill Dew Point Humidity Wind Precip. Elev Updated Type
                   

Watches & Warnings

There are currently no watches in effect.